Portada
METAR-TAF:

METAR-TAF

Aeroports :

Funafuti, Tuvalu

latitud: 08-31S, longitud: 179-13E, altitud: 1 m

Observació

L'informe es va fer fa 25 minuts, a les 23:00 UTC
Vent 4 kt del Est/Nord-Est
Temperatura 31°C
Humitat 71%
Pressió 1010 hPa
Visibilitat 10 km o més
Escasses núvols a una alçada de 1800 ft, Cumulus congestus.
Núvols disperses a una alçada de 2000 ft

METAR: NGFU 272300Z 06004KT 9999 FEW018TCU SCT020 31/25 Q1010

Hora: 11:25 (23:25 UTC)

Pronòstic

L'informe es va fer fa 6 hores i 3 minuts, a les 17:22 UTC
Pronòstic vàlid del 27 a les 18 UTC al 28 a les 18 UTC
Vent 5 kt del Est
Visibilitat 10 km o més
Núvols disperses a una alçada de 1800 ft
Probabilitat 40% :
Temporalment
l' 28 a les 03 UTC al 28 a les 18 UTC
Visibilitat: 5000 m
Cel ennuvolat a una alçada de 1600 ft
Escasses núvols a una alçada de 1700 ft, Cumulonimbus.
tempesta, pluja

TAF: NGFU 271722Z 2718/2818 08005KT 9999 SCT018 PROB40 TEMPO 2803/2818 5000 TSRA BKN016 FEW017CB

Observacions i pronòstics meteorològics de més de 4000 aeroports (METAR i TAF).

Les estacions disponibles són els punts grocs i vermells al mapa.

Posi el ratolí al punt desitjat per veure el nom de l'estació.

Feu clic per veure les observacions i els pronòstics meteorològics.

Per canviar el mapa: feu clic els botons verds amb una creu de color negre per apropar; al botó verd amb un guió per allunyar la imatge; o en les fletxes verdes per a mapes adjacents.


METAR-TAF: